sensor_id;sensor_type;location;lat;lon;timestamp;P1;durP1;ratioP1;P2;durP2;ratioP2
20870;SDS011;10595;51.218;3.452;2022-10-15T00:02:13;31.57;;;23.63;;
20870;SDS011;10595;51.218;3.452;2022-10-15T00:04:39;35.40;;;23.63;;
20870;SDS011;10595;51.218;3.452;2022-10-15T00:07:05;30.27;;;22.93;;
20870;SDS011;10595;51.218;3.452;2022-10-15T00:09:31;29.87;;;22.00;;
20870;SDS011;10595;51.218;3.452;2022-10-15T00:11:57;34.37;;;23.00;;
20870;SDS011;10595;51.218;3.452;2022-10-15T00:14:23;30.20;;;22.87;;
20870;SDS011;10595;51.218;3.452;2022-10-15T00:16:49;34.77;;;23.57;;
20870;SDS011;10595;51.218;3.452;2022-10-15T00:19:15;27.73;;;22.03;;
20870;SDS011;10595;51.218;3.452;2022-10-15T00:21:41;34.53;;;22.33;;
20870;SDS011;10595;51.218;3.452;2022-10-15T00:24:07;31.57;;;23.07;;
20870;SDS011;10595;51.218;3.452;2022-10-15T00:26:33;30.33;;;21.60;;
20870;SDS011;10595;51.218;3.452;2022-10-15T00:29:00;29.73;;;21.37;;
20870;SDS011;10595;51.218;3.452;2022-10-15T00:31:27;28.97;;;20.77;;
20870;SDS011;10595;51.218;3.452;2022-10-15T00:33:54;26.67;;;20.27;;
20870;SDS011;10595;51.218;3.452;2022-10-15T00:36:21;32.27;;;20.90;;
20870;SDS011;10595;51.218;3.452;2022-10-15T00:38:48;27.57;;;19.93;;
20870;SDS011;10595;51.218;3.452;2022-10-15T00:41:15;28.23;;;20.57;;
20870;SDS011;10595;51.218;3.452;2022-10-15T00:43:46;29.43;;;19.77;;
20870;SDS011;10595;51.218;3.452;2022-10-15T00:48:49;26.43;;;20.00;;
20870;SDS011;10595;51.218;3.452;2022-10-15T00:51:16;30.23;;;20.53;;
20870;SDS011;10595;51.218;3.452;2022-10-15T00:53:42;26.57;;;18.67;;
20870;SDS011;10595;51.218;3.452;2022-10-15T00:56:08;26.33;;;19.30;;
20870;SDS011;10595;51.218;3.452;2022-10-15T00:58:34;28.07;;;19.17;;
20870;SDS011;10595;51.218;3.452;2022-10-15T01:01:01;24.77;;;17.90;;
20870;SDS011;10595;51.218;3.452;2022-10-15T01:03:27;27.17;;;18.03;;
20870;SDS011;10595;51.218;3.452;2022-10-15T01:05:53;27.90;;;18.80;;
20870;SDS011;10595;51.218;3.452;2022-10-15T01:08:19;26.03;;;18.70;;
20870;SDS011;10595;51.218;3.452;2022-10-15T01:13:13;22.47;;;17.00;;
20870;SDS011;10595;51.218;3.452;2022-10-15T01:15:53;21.03;;;16.93;;
20870;SDS011;10595;51.218;3.452;2022-10-15T01:18:35;23.40;;;17.47;;
20870;SDS011;10595;51.218;3.452;2022-10-15T01:21:21;23.63;;;17.77;;
20870;SDS011;10595;51.218;3.452;2022-10-15T01:29:16;24.50;;;17.23;;
20870;SDS011;10595;51.218;3.452;2022-10-15T01:31:49;25.10;;;18.73;;
20870;SDS011;10595;51.218;3.452;2022-10-15T01:34:20;25.43;;;17.87;;
20870;SDS011;10595;51.218;3.452;2022-10-15T01:37:33;26.57;;;19.83;;
20870;SDS011;10595;51.218;3.452;2022-10-15T01:39:43;26.27;;;17.73;;
20870;SDS011;10595;51.218;3.452;2022-10-15T01:42:19;25.83;;;18.67;;
20870;SDS011;10595;51.218;3.452;2022-10-15T01:44:51;25.67;;;19.07;;
20870;SDS011;10595;51.218;3.452;2022-10-15T01:49:53;28.37;;;20.13;;
20870;SDS011;10595;51.218;3.452;2022-10-15T01:52:20;27.47;;;19.57;;
20870;SDS011;10595;51.218;3.452;2022-10-15T01:54:48;31.70;;;21.27;;
20870;SDS011;10595;51.218;3.452;2022-10-15T01:57:15;27.63;;;20.40;;
20870;SDS011;10595;51.218;3.452;2022-10-15T01:59:42;30.53;;;20.53;;
20870;SDS011;10595;51.218;3.452;2022-10-15T02:02:09;30.57;;;21.73;;
20870;SDS011;10595;51.218;3.452;2022-10-15T02:04:35;33.23;;;22.83;;
20870;SDS011;10595;51.218;3.452;2022-10-15T02:07:02;38.33;;;24.33;;
20870;SDS011;10595;51.218;3.452;2022-10-15T02:12:10;36.07;;;23.90;;
20870;SDS011;10595;51.218;3.452;2022-10-15T02:20:13;34.20;;;22.07;;
20870;SDS011;10595;51.218;3.452;2022-10-15T02:22:42;34.70;;;21.57;;
20870;SDS011;10595;51.218;3.452;2022-10-15T02:25:15;33.60;;;21.67;;
20870;SDS011;10595;51.218;3.452;2022-10-15T02:27:43;36.17;;;22.10;;
20870;SDS011;10595;51.218;3.452;2022-10-15T02:30:10;32.00;;;21.80;;
20870;SDS011;10595;51.218;3.452;2022-10-15T02:32:37;32.93;;;22.47;;
20870;SDS011;10595;51.218;3.452;2022-10-15T02:35:04;37.60;;;22.73;;
20870;SDS011;10595;51.218;3.452;2022-10-15T02:37:31;36.90;;;24.23;;
20870;SDS011;10595;51.218;3.452;2022-10-15T02:39:58;35.87;;;23.43;;
20870;SDS011;10595;51.218;3.452;2022-10-15T02:42:24;41.37;;;23.80;;
20870;SDS011;10595;51.218;3.452;2022-10-15T02:44:51;37.67;;;22.97;;
20870;SDS011;10595;51.218;3.452;2022-10-15T02:47:17;34.77;;;23.10;;
20870;SDS011;10595;51.218;3.452;2022-10-15T02:49:43;32.43;;;23.27;;
20870;SDS011;10595;51.218;3.452;2022-10-15T02:52:09;37.43;;;23.57;;
20870;SDS011;10595;51.218;3.452;2022-10-15T02:54:35;38.73;;;24.20;;
20870;SDS011;10595;51.218;3.452;2022-10-15T02:57:01;38.10;;;23.73;;
20870;SDS011;10595;51.218;3.452;2022-10-15T02:59:27;39.60;;;23.80;;
20870;SDS011;10595;51.218;3.452;2022-10-15T03:01:53;37.73;;;24.73;;
20870;SDS011;10595;51.218;3.452;2022-10-15T03:04:19;35.43;;;23.23;;
20870;SDS011;10595;51.218;3.452;2022-10-15T03:06:45;39.50;;;23.83;;
20870;SDS011;10595;51.218;3.452;2022-10-15T03:09:11;37.73;;;23.23;;
20870;SDS011;10595;51.218;3.452;2022-10-15T03:11:37;36.50;;;22.77;;
20870;SDS011;10595;51.218;3.452;2022-10-15T03:14:04;37.43;;;22.43;;
20870;SDS011;10595;51.218;3.452;2022-10-15T03:16:30;37.30;;;23.13;;
20870;SDS011;10595;51.218;3.452;2022-10-15T03:18:56;37.10;;;22.27;;
20870;SDS011;10595;51.218;3.452;2022-10-15T03:21:22;40.50;;;24.50;;
20870;SDS011;10595;51.218;3.452;2022-10-15T03:23:48;37.63;;;23.17;;
20870;SDS011;10595;51.218;3.452;2022-10-15T03:26:14;36.47;;;22.53;;
20870;SDS011;10595;51.218;3.452;2022-10-15T03:28:39;35.77;;;22.67;;
20870;SDS011;10595;51.218;3.452;2022-10-15T03:31:05;39.67;;;23.10;;
20870;SDS011;10595;51.218;3.452;2022-10-15T03:33:31;39.73;;;23.60;;
20870;SDS011;10595;51.218;3.452;2022-10-15T03:35:57;40.60;;;23.20;;
20870;SDS011;10595;51.218;3.452;2022-10-15T03:38:23;40.07;;;25.27;;
20870;SDS011;10595;51.218;3.452;2022-10-15T03:40:49;43.77;;;26.03;;
20870;SDS011;10595;51.218;3.452;2022-10-15T03:43:15;48.93;;;27.93;;
20870;SDS011;10595;51.218;3.452;2022-10-15T03:45:42;47.57;;;28.03;;
20870;SDS011;10595;51.218;3.452;2022-10-15T03:48:08;52.70;;;29.53;;
20870;SDS011;10595;51.218;3.452;2022-10-15T03:50:34;44.67;;;28.83;;
20870;SDS011;10595;51.218;3.452;2022-10-15T03:53:02;49.13;;;29.13;;
20870;SDS011;10595;51.218;3.452;2022-10-15T03:55:28;44.20;;;27.90;;
20870;SDS011;10595;51.218;3.452;2022-10-15T03:57:54;53.50;;;29.67;;
20870;SDS011;10595;51.218;3.452;2022-10-15T04:00:19;48.47;;;28.70;;
20870;SDS011;10595;51.218;3.452;2022-10-15T04:02:45;52.87;;;29.17;;
20870;SDS011;10595;51.218;3.452;2022-10-15T04:05:11;51.97;;;27.47;;
20870;SDS011;10595;51.218;3.452;2022-10-15T04:07:37;47.23;;;27.33;;
20870;SDS011;10595;51.218;3.452;2022-10-15T04:10:04;47.03;;;27.47;;
20870;SDS011;10595;51.218;3.452;2022-10-15T04:12:30;46.03;;;27.73;;
20870;SDS011;10595;51.218;3.452;2022-10-15T04:14:56;46.20;;;27.33;;
20870;SDS011;10595;51.218;3.452;2022-10-15T04:17:22;44.30;;;26.67;;
20870;SDS011;10595;51.218;3.452;2022-10-15T04:19:47;44.47;;;26.57;;
20870;SDS011;10595;51.218;3.452;2022-10-15T04:22:13;46.47;;;26.53;;
20870;SDS011;10595;51.218;3.452;2022-10-15T04:24:39;43.67;;;26.70;;
20870;SDS011;10595;51.218;3.452;2022-10-15T04:27:05;44.77;;;26.43;;
20870;SDS011;10595;51.218;3.452;2022-10-15T04:29:31;43.60;;;26.40;;
20870;SDS011;10595;51.218;3.452;2022-10-15T04:31:58;40.33;;;24.33;;
20870;SDS011;10595;51.218;3.452;2022-10-15T04:34:24;41.13;;;24.80;;
20870;SDS011;10595;51.218;3.452;2022-10-15T04:36:50;41.80;;;24.10;;
20870;SDS011;10595;51.218;3.452;2022-10-15T04:39:16;35.70;;;22.37;;
20870;SDS011;10595;51.218;3.452;2022-10-15T04:41:42;39.73;;;24.00;;
20870;SDS011;10595;51.218;3.452;2022-10-15T04:44:08;40.27;;;24.37;;
20870;SDS011;10595;51.218;3.452;2022-10-15T04:46:34;39.20;;;22.90;;
20870;SDS011;10595;51.218;3.452;2022-10-15T04:49:00;36.53;;;22.47;;
20870;SDS011;10595;51.218;3.452;2022-10-15T04:51:26;37.70;;;22.40;;
20870;SDS011;10595;51.218;3.452;2022-10-15T04:53:53;36.60;;;22.43;;
20870;SDS011;10595;51.218;3.452;2022-10-15T04:56:20;35.70;;;21.60;;
20870;SDS011;10595;51.218;3.452;2022-10-15T04:58:47;31.87;;;21.17;;
20870;SDS011;10595;51.218;3.452;2022-10-15T05:01:14;33.23;;;19.93;;
20870;SDS011;10595;51.218;3.452;2022-10-15T05:03:41;32.13;;;20.20;;
20870;SDS011;10595;51.218;3.452;2022-10-15T05:06:11;35.50;;;21.20;;
20870;SDS011;10595;51.218;3.452;2022-10-15T05:08:38;37.60;;;20.87;;
20870;SDS011;10595;51.218;3.452;2022-10-15T05:11:11;34.43;;;19.10;;
20870;SDS011;10595;51.218;3.452;2022-10-15T05:13:38;30.77;;;19.30;;
20870;SDS011;10595;51.218;3.452;2022-10-15T05:16:11;32.00;;;18.90;;
20870;SDS011;10595;51.218;3.452;2022-10-15T05:18:38;30.67;;;18.93;;
20870;SDS011;10595;51.218;3.452;2022-10-15T05:21:04;30.80;;;18.83;;
20870;SDS011;10595;51.218;3.452;2022-10-15T05:23:30;28.37;;;17.40;;
20870;SDS011;10595;51.218;3.452;2022-10-15T05:26:00;29.87;;;18.03;;
20870;SDS011;10595;51.218;3.452;2022-10-15T05:28:26;32.07;;;19.17;;
20870;SDS011;10595;51.218;3.452;2022-10-15T05:30:52;26.97;;;17.13;;
20870;SDS011;10595;51.218;3.452;2022-10-15T05:33:18;31.13;;;17.77;;
20870;SDS011;10595;51.218;3.452;2022-10-15T05:35:44;25.80;;;16.17;;
20870;SDS011;10595;51.218;3.452;2022-10-15T05:38:11;28.80;;;16.33;;
20870;SDS011;10595;51.218;3.452;2022-10-15T05:40:37;24.30;;;15.53;;
20870;SDS011;10595;51.218;3.452;2022-10-15T05:43:03;24.90;;;16.03;;
20870;SDS011;10595;51.218;3.452;2022-10-15T05:45:29;23.20;;;15.23;;
20870;SDS011;10595;51.218;3.452;2022-10-15T05:47:55;24.93;;;15.50;;
20870;SDS011;10595;51.218;3.452;2022-10-15T05:50:21;26.03;;;15.23;;
20870;SDS011;10595;51.218;3.452;2022-10-15T05:52:48;25.43;;;15.47;;
20870;SDS011;10595;51.218;3.452;2022-10-15T05:55:14;23.87;;;15.37;;
20870;SDS011;10595;51.218;3.452;2022-10-15T05:57:40;24.50;;;15.97;;
20870;SDS011;10595;51.218;3.452;2022-10-15T06:00:06;24.13;;;15.33;;
20870;SDS011;10595;51.218;3.452;2022-10-15T06:02:33;24.23;;;15.53;;
20870;SDS011;10595;51.218;3.452;2022-10-15T06:04:59;27.03;;;16.00;;
20870;SDS011;10595;51.218;3.452;2022-10-15T06:07:25;26.63;;;15.70;;
20870;SDS011;10595;51.218;3.452;2022-10-15T06:09:51;23.07;;;14.33;;
20870;SDS011;10595;51.218;3.452;2022-10-15T06:12:17;26.87;;;15.93;;
20870;SDS011;10595;51.218;3.452;2022-10-15T06:14:43;26.57;;;16.10;;
20870;SDS011;10595;51.218;3.452;2022-10-15T06:17:09;28.67;;;16.83;;
20870;SDS011;10595;51.218;3.452;2022-10-15T06:19:35;29.67;;;17.00;;
20870;SDS011;10595;51.218;3.452;2022-10-15T06:22:01;30.37;;;17.17;;
20870;SDS011;10595;51.218;3.452;2022-10-15T06:24:27;32.73;;;17.37;;
20870;SDS011;10595;51.218;3.452;2022-10-15T06:26:53;34.07;;;18.67;;
20870;SDS011;10595;51.218;3.452;2022-10-15T06:29:19;37.20;;;18.83;;
20870;SDS011;10595;51.218;3.452;2022-10-15T06:31:45;37.23;;;20.33;;
20870;SDS011;10595;51.218;3.452;2022-10-15T06:34:11;36.50;;;20.77;;
20870;SDS011;10595;51.218;3.452;2022-10-15T06:36:37;34.67;;;20.33;;
20870;SDS011;10595;51.218;3.452;2022-10-15T06:39:03;36.77;;;21.93;;
20870;SDS011;10595;51.218;3.452;2022-10-15T06:41:29;35.87;;;21.30;;
20870;SDS011;10595;51.218;3.452;2022-10-15T06:43:55;36.47;;;21.10;;
20870;SDS011;10595;51.218;3.452;2022-10-15T06:46:21;37.03;;;21.30;;
20870;SDS011;10595;51.218;3.452;2022-10-15T06:48:48;38.13;;;20.67;;
20870;SDS011;10595;51.218;3.452;2022-10-15T06:51:15;36.63;;;20.03;;
20870;SDS011;10595;51.218;3.452;2022-10-15T06:53:41;38.10;;;21.97;;
20870;SDS011;10595;51.218;3.452;2022-10-15T06:56:07;34.97;;;20.07;;
20870;SDS011;10595;51.218;3.452;2022-10-15T06:58:33;37.10;;;21.27;;
20870;SDS011;10595;51.218;3.452;2022-10-15T07:01:03;39.67;;;21.17;;
20870;SDS011;10595;51.218;3.452;2022-10-15T07:03:30;36.87;;;21.03;;
20870;SDS011;10595;51.218;3.452;2022-10-15T07:06:00;36.77;;;21.03;;
20870;SDS011;10595;51.218;3.452;2022-10-15T07:08:26;39.27;;;22.83;;
20870;SDS011;10595;51.218;3.452;2022-10-15T07:10:52;37.83;;;22.27;;
20870;SDS011;10595;51.218;3.452;2022-10-15T07:13:18;43.27;;;22.43;;
20870;SDS011;10595;51.218;3.452;2022-10-15T07:15:44;37.77;;;21.23;;
20870;SDS011;10595;51.218;3.452;2022-10-15T07:18:13;42.77;;;22.50;;
20870;SDS011;10595;51.218;3.452;2022-10-15T07:20:39;45.33;;;23.10;;
20870;SDS011;10595;51.218;3.452;2022-10-15T07:23:05;43.67;;;22.40;;
20870;SDS011;10595;51.218;3.452;2022-10-15T07:25:31;40.47;;;21.27;;
20870;SDS011;10595;51.218;3.452;2022-10-15T07:27:57;38.97;;;20.70;;
20870;SDS011;10595;51.218;3.452;2022-10-15T07:30:23;41.17;;;21.67;;
20870;SDS011;10595;51.218;3.452;2022-10-15T07:32:54;42.30;;;21.37;;
20870;SDS011;10595;51.218;3.452;2022-10-15T07:35:20;38.43;;;20.40;;
20870;SDS011;10595;51.218;3.452;2022-10-15T07:37:46;35.97;;;20.07;;
20870;SDS011;10595;51.218;3.452;2022-10-15T07:40:14;37.97;;;19.80;;
20870;SDS011;10595;51.218;3.452;2022-10-15T07:42:40;35.43;;;20.00;;
20870;SDS011;10595;51.218;3.452;2022-10-15T07:45:06;37.00;;;19.23;;
20870;SDS011;10595;51.218;3.452;2022-10-15T07:47:33;37.20;;;19.50;;
20870;SDS011;10595;51.218;3.452;2022-10-15T07:49:59;32.97;;;19.17;;
20870;SDS011;10595;51.218;3.452;2022-10-15T07:52:25;34.57;;;18.73;;
20870;SDS011;10595;51.218;3.452;2022-10-15T07:54:51;33.83;;;18.53;;
20870;SDS011;10595;51.218;3.452;2022-10-15T07:57:17;31.50;;;17.37;;
20870;SDS011;10595;51.218;3.452;2022-10-15T07:59:43;33.57;;;17.60;;
20870;SDS011;10595;51.218;3.452;2022-10-15T08:02:17;28.87;;;16.70;;
20870;SDS011;10595;51.218;3.452;2022-10-15T08:04:44;29.17;;;17.23;;
20870;SDS011;10595;51.218;3.452;2022-10-15T08:07:10;28.57;;;15.40;;
20870;SDS011;10595;51.218;3.452;2022-10-15T08:09:37;28.43;;;15.80;;
20870;SDS011;10595;51.218;3.452;2022-10-15T08:12:03;29.43;;;15.73;;
20870;SDS011;10595;51.218;3.452;2022-10-15T08:14:30;25.27;;;15.60;;
20870;SDS011;10595;51.218;3.452;2022-10-15T08:16:56;24.63;;;14.80;;
20870;SDS011;10595;51.218;3.452;2022-10-15T08:19:22;25.30;;;15.27;;
20870;SDS011;10595;51.218;3.452;2022-10-15T08:21:48;24.53;;;14.40;;
20870;SDS011;10595;51.218;3.452;2022-10-15T08:24:14;24.93;;;14.17;;
20870;SDS011;10595;51.218;3.452;2022-10-15T08:26:40;22.17;;;12.93;;
20870;SDS011;10595;51.218;3.452;2022-10-15T08:29:06;21.50;;;12.20;;
20870;SDS011;10595;51.218;3.452;2022-10-15T08:31:32;19.27;;;12.23;;
20870;SDS011;10595;51.218;3.452;2022-10-15T08:33:59;17.80;;;10.87;;
20870;SDS011;10595;51.218;3.452;2022-10-15T08:36:25;17.40;;;11.23;;
20870;SDS011;10595;51.218;3.452;2022-10-15T08:38:51;16.27;;;10.37;;
20870;SDS011;10595;51.218;3.452;2022-10-15T08:43:49;17.07;;;10.83;;
20870;SDS011;10595;51.218;3.452;2022-10-15T08:46:35;16.87;;;10.80;;
20870;SDS011;10595;51.218;3.452;2022-10-15T08:49:02;17.80;;;10.83;;
20870;SDS011;10595;51.218;3.452;2022-10-15T08:51:30;16.47;;;10.30;;
20870;SDS011;10595;51.218;3.452;2022-10-15T08:53:59;16.87;;;10.70;;
20870;SDS011;10595;51.218;3.452;2022-10-15T08:56:26;18.87;;;11.63;;
20870;SDS011;10595;51.218;3.452;2022-10-15T09:01:31;18.03;;;11.50;;
20870;SDS011;10595;51.218;3.452;2022-10-15T09:06:41;18.50;;;12.23;;
20870;SDS011;10595;51.218;3.452;2022-10-15T09:13:59;16.57;;;11.63;;
20870;SDS011;10595;51.218;3.452;2022-10-15T09:16:29;16.03;;;11.73;;
20870;SDS011;10595;51.218;3.452;2022-10-15T09:18:57;16.80;;;11.30;;
20870;SDS011;10595;51.218;3.452;2022-10-15T09:21:26;15.87;;;10.40;;
20870;SDS011;10595;51.218;3.452;2022-10-15T09:23:56;16.33;;;10.33;;
20870;SDS011;10595;51.218;3.452;2022-10-15T09:26:31;14.80;;;10.67;;
20870;SDS011;10595;51.218;3.452;2022-10-15T09:37:04;11.50;;;9.10;;
20870;SDS011;10595;51.218;3.452;2022-10-15T09:39:37;11.93;;;8.87;;
20870;SDS011;10595;51.218;3.452;2022-10-15T09:42:20;11.17;;;9.37;;
20870;SDS011;10595;51.218;3.452;2022-10-15T09:44:48;11.63;;;9.40;;
20870;SDS011;10595;51.218;3.452;2022-10-15T09:47:21;12.97;;;9.90;;
20870;SDS011;10595;51.218;3.452;2022-10-15T09:49:48;14.17;;;11.27;;
20870;SDS011;10595;51.218;3.452;2022-10-15T09:55:27;14.37;;;11.97;;
20870;SDS011;10595;51.218;3.452;2022-10-15T09:57:33;15.03;;;12.50;;
20870;SDS011;10595;51.218;3.452;2022-10-15T10:00:00;13.90;;;11.90;;
20870;SDS011;10595;51.218;3.452;2022-10-15T10:02:27;14.47;;;12.63;;
20870;SDS011;10595;51.218;3.452;2022-10-15T10:04:53;13.80;;;12.40;;
20870;SDS011;10595;51.218;3.452;2022-10-15T10:12:49;12.07;;;10.87;;
20870;SDS011;10595;51.218;3.452;2022-10-15T10:15:35;12.13;;;10.73;;
20870;SDS011;10595;51.218;3.452;2022-10-15T10:18:02;10.90;;;9.80;;
20870;SDS011;10595;51.218;3.452;2022-10-15T10:20:31;11.67;;;10.43;;
20870;SDS011;10595;51.218;3.452;2022-10-15T10:23:01;11.13;;;9.93;;
20870;SDS011;10595;51.218;3.452;2022-10-15T10:25:30;9.93;;;8.73;;
20870;SDS011;10595;51.218;3.452;2022-10-15T10:27:58;9.10;;;8.20;;
20870;SDS011;10595;51.218;3.452;2022-10-15T10:30:31;9.20;;;8.30;;
20870;SDS011;10595;51.218;3.452;2022-10-15T10:32:57;8.80;;;7.90;;
20870;SDS011;10595;51.218;3.452;2022-10-15T10:35:25;7.90;;;7.20;;
20870;SDS011;10595;51.218;3.452;2022-10-15T10:37:53;7.83;;;7.13;;
20870;SDS011;10595;51.218;3.452;2022-10-15T10:42:45;6.87;;;6.07;;
20870;SDS011;10595;51.218;3.452;2022-10-15T10:45:15;6.40;;;5.57;;
20870;SDS011;10595;51.218;3.452;2022-10-15T10:47:41;5.50;;;5.00;;
20870;SDS011;10595;51.218;3.452;2022-10-15T10:50:24;5.37;;;4.70;;
20870;SDS011;10595;51.218;3.452;2022-10-15T10:52:50;5.00;;;4.60;;
20870;SDS011;10595;51.218;3.452;2022-10-15T10:55:18;5.07;;;4.57;;
20870;SDS011;10595;51.218;3.452;2022-10-15T10:57:51;6.40;;;4.73;;
20870;SDS011;10595;51.218;3.452;2022-10-15T11:02:44;5.43;;;4.40;;
20870;SDS011;10595;51.218;3.452;2022-10-15T11:05:10;3.87;;;3.57;;
20870;SDS011;10595;51.218;3.452;2022-10-15T11:10:41;1.50;;;1.40;;
20870;SDS011;10595;51.218;3.452;2022-10-15T11:13:28;2.83;;;1.20;;
20870;SDS011;10595;51.218;3.452;2022-10-15T11:16:02;2.47;;;1.60;;
20870;SDS011;10595;51.218;3.452;2022-10-15T11:18:38;2.40;;;1.50;;
20870;SDS011;10595;51.218;3.452;2022-10-15T11:29:19;2.80;;;1.30;;
20870;SDS011;10595;51.218;3.452;2022-10-15T11:40:18;3.93;;;0.70;;
20870;SDS011;10595;51.218;3.452;2022-10-15T11:50:16;4.40;;;0.80;;
20870;SDS011;10595;51.218;3.452;2022-10-15T11:55:17;2.37;;;0.80;;
20870;SDS011;10595;51.218;3.452;2022-10-15T11:57:44;2.60;;;0.63;;
20870;SDS011;10595;51.218;3.452;2022-10-15T12:02:55;2.00;;;0.70;;
20870;SDS011;10595;51.218;3.452;2022-10-15T12:05:27;2.23;;;0.90;;
20870;SDS011;10595;51.218;3.452;2022-10-15T12:07:56;5.13;;;1.70;;
20870;SDS011;10595;51.218;3.452;2022-10-15T12:10:28;6.27;;;1.63;;
20870;SDS011;10595;51.218;3.452;2022-10-15T12:20:44;1.47;;;0.63;;
20870;SDS011;10595;51.218;3.452;2022-10-15T12:25:55;4.43;;;0.87;;
20870;SDS011;10595;51.218;3.452;2022-10-15T12:28:22;5.67;;;1.10;;
20870;SDS011;10595;51.218;3.452;2022-10-15T12:30:53;3.33;;;0.93;;
20870;SDS011;10595;51.218;3.452;2022-10-15T12:33:22;3.30;;;0.87;;
20870;SDS011;10595;51.218;3.452;2022-10-15T12:35:59;3.40;;;0.70;;
20870;SDS011;10595;51.218;3.452;2022-10-15T12:38:30;5.13;;;1.03;;
20870;SDS011;10595;51.218;3.452;2022-10-15T12:40:58;4.50;;;1.43;;
20870;SDS011;10595;51.218;3.452;2022-10-15T12:43:24;4.07;;;1.10;;
20870;SDS011;10595;51.218;3.452;2022-10-15T12:46:01;5.23;;;1.20;;
20870;SDS011;10595;51.218;3.452;2022-10-15T12:48:29;4.37;;;0.80;;
20870;SDS011;10595;51.218;3.452;2022-10-15T12:51:27;4.37;;;1.00;;
20870;SDS011;10595;51.218;3.452;2022-10-15T12:53:42;5.13;;;1.00;;
20870;SDS011;10595;51.218;3.452;2022-10-15T12:58:38;3.53;;;1.10;;
20870;SDS011;10595;51.218;3.452;2022-10-15T13:08:47;7.10;;;1.70;;
20870;SDS011;10595;51.218;3.452;2022-10-15T13:11:48;5.00;;;1.00;;
20870;SDS011;10595;51.218;3.452;2022-10-15T13:16:42;8.00;;;1.30;;
20870;SDS011;10595;51.218;3.452;2022-10-15T13:19:16;6.53;;;1.23;;
20870;SDS011;10595;51.218;3.452;2022-10-15T13:21:45;5.40;;;1.63;;
20870;SDS011;10595;51.218;3.452;2022-10-15T13:24:13;7.20;;;1.57;;
20870;SDS011;10595;51.218;3.452;2022-10-15T13:26:40;4.80;;;1.20;;
20870;SDS011;10595;51.218;3.452;2022-10-15T13:29:12;5.03;;;1.40;;
20870;SDS011;10595;51.218;3.452;2022-10-15T13:31:39;4.50;;;1.60;;
20870;SDS011;10595;51.218;3.452;2022-10-15T13:36:40;5.10;;;1.40;;
20870;SDS011;10595;51.218;3.452;2022-10-15T13:39:07;6.00;;;1.40;;
20870;SDS011;10595;51.218;3.452;2022-10-15T13:41:44;5.10;;;1.30;;
20870;SDS011;10595;51.218;3.452;2022-10-15T13:44:28;4.77;;;1.40;;
20870;SDS011;10595;51.218;3.452;2022-10-15T13:46:54;4.60;;;1.87;;
20870;SDS011;10595;51.218;3.452;2022-10-15T13:49:20;6.40;;;1.27;;
20870;SDS011;10595;51.218;3.452;2022-10-15T13:51:48;5.33;;;1.53;;
20870;SDS011;10595;51.218;3.452;2022-10-15T13:54:26;2.80;;;1.27;;
20870;SDS011;10595;51.218;3.452;2022-10-15T13:56:53;6.70;;;1.40;;
20870;SDS011;10595;51.218;3.452;2022-10-15T13:59:22;5.97;;;1.23;;
20870;SDS011;10595;51.218;3.452;2022-10-15T14:01:50;5.80;;;1.33;;
20870;SDS011;10595;51.218;3.452;2022-10-15T14:04:18;3.80;;;1.30;;
20870;SDS011;10595;51.218;3.452;2022-10-15T14:06:52;3.83;;;1.00;;
20870;SDS011;10595;51.218;3.452;2022-10-15T14:09:33;4.83;;;1.40;;
20870;SDS011;10595;51.218;3.452;2022-10-15T14:11:59;6.67;;;1.20;;
20870;SDS011;10595;51.218;3.452;2022-10-15T14:14:42;6.00;;;1.20;;
20870;SDS011;10595;51.218;3.452;2022-10-15T14:17:23;4.43;;;1.40;;
20870;SDS011;10595;51.218;3.452;2022-10-15T14:20:00;4.13;;;0.80;;
20870;SDS011;10595;51.218;3.452;2022-10-15T14:22:27;7.13;;;1.50;;
20870;SDS011;10595;51.218;3.452;2022-10-15T14:24:53;5.77;;;1.40;;
20870;SDS011;10595;51.218;3.452;2022-10-15T14:27:21;5.97;;;1.30;;
20870;SDS011;10595;51.218;3.452;2022-10-15T14:29:49;6.33;;;0.93;;
20870;SDS011;10595;51.218;3.452;2022-10-15T14:32:26;5.60;;;1.00;;
20870;SDS011;10595;51.218;3.452;2022-10-15T14:34:53;4.63;;;1.20;;
20870;SDS011;10595;51.218;3.452;2022-10-15T14:42:34;10.00;;;1.80;;
20870;SDS011;10595;51.218;3.452;2022-10-15T14:47:37;5.77;;;1.70;;
20870;SDS011;10595;51.218;3.452;2022-10-15T14:50:03;7.23;;;1.27;;
20870;SDS011;10595;51.218;3.452;2022-10-15T14:52:30;9.37;;;1.40;;
20870;SDS011;10595;51.218;3.452;2022-10-15T14:57:23;4.07;;;0.83;;
20870;SDS011;10595;51.218;3.452;2022-10-15T14:59:52;4.07;;;1.30;;
20870;SDS011;10595;51.218;3.452;2022-10-15T15:02:19;3.17;;;0.80;;
20870;SDS011;10595;51.218;3.452;2022-10-15T15:04:51;5.40;;;1.10;;
20870;SDS011;10595;51.218;3.452;2022-10-15T15:07:18;6.23;;;0.80;;
20870;SDS011;10595;51.218;3.452;2022-10-15T15:09:48;3.67;;;1.30;;
20870;SDS011;10595;51.218;3.452;2022-10-15T15:12:22;5.20;;;3.00;;
20870;SDS011;10595;51.218;3.452;2022-10-15T15:14:49;5.40;;;1.20;;
20870;SDS011;10595;51.218;3.452;2022-10-15T15:17:16;3.77;;;1.33;;
20870;SDS011;10595;51.218;3.452;2022-10-15T15:19:42;4.33;;;1.07;;
20870;SDS011;10595;51.218;3.452;2022-10-15T15:22:12;5.80;;;1.10;;
20870;SDS011;10595;51.218;3.452;2022-10-15T15:24:39;3.93;;;0.97;;
20870;SDS011;10595;51.218;3.452;2022-10-15T15:27:05;4.93;;;1.00;;
20870;SDS011;10595;51.218;3.452;2022-10-15T15:29:31;4.13;;;0.77;;
20870;SDS011;10595;51.218;3.452;2022-10-15T15:31:57;3.40;;;0.70;;
20870;SDS011;10595;51.218;3.452;2022-10-15T15:34:23;6.07;;;1.20;;
20870;SDS011;10595;51.218;3.452;2022-10-15T15:36:49;6.73;;;0.97;;
20870;SDS011;10595;51.218;3.452;2022-10-15T15:39:15;3.10;;;1.00;;
20870;SDS011;10595;51.218;3.452;2022-10-15T15:41:41;6.63;;;1.50;;
20870;SDS011;10595;51.218;3.452;2022-10-15T15:44:10;4.43;;;1.07;;
20870;SDS011;10595;51.218;3.452;2022-10-15T15:46:36;6.37;;;1.10;;
20870;SDS011;10595;51.218;3.452;2022-10-15T15:49:02;4.73;;;1.00;;
20870;SDS011;10595;51.218;3.452;2022-10-15T15:51:28;5.87;;;1.30;;
20870;SDS011;10595;51.218;3.452;2022-10-15T15:53:56;5.77;;;1.50;;
20870;SDS011;10595;51.218;3.452;2022-10-15T15:56:23;5.33;;;1.00;;
20870;SDS011;10595;51.218;3.452;2022-10-15T15:58:49;5.07;;;1.03;;
20870;SDS011;10595;51.218;3.452;2022-10-15T16:01:16;5.57;;;0.97;;
20870;SDS011;10595;51.218;3.452;2022-10-15T16:03:42;4.23;;;1.30;;
20870;SDS011;10595;51.218;3.452;2022-10-15T16:06:08;6.40;;;2.40;;
20870;SDS011;10595;51.218;3.452;2022-10-15T16:08:34;9.23;;;2.20;;
20870;SDS011;10595;51.218;3.452;2022-10-15T16:11:01;9.77;;;2.27;;
20870;SDS011;10595;51.218;3.452;2022-10-15T16:13:28;7.03;;;1.57;;
20870;SDS011;10595;51.218;3.452;2022-10-15T16:15:54;7.73;;;1.50;;
20870;SDS011;10595;51.218;3.452;2022-10-15T16:18:20;8.13;;;1.80;;
20870;SDS011;10595;51.218;3.452;2022-10-15T16:20:46;6.57;;;1.30;;
20870;SDS011;10595;51.218;3.452;2022-10-15T16:23:12;5.90;;;1.47;;
20870;SDS011;10595;51.218;3.452;2022-10-15T16:25:38;7.00;;;1.47;;
20870;SDS011;10595;51.218;3.452;2022-10-15T16:28:04;4.57;;;1.13;;
20870;SDS011;10595;51.218;3.452;2022-10-15T16:30:30;5.30;;;1.40;;
20870;SDS011;10595;51.218;3.452;2022-10-15T16:32:56;6.60;;;1.50;;
20870;SDS011;10595;51.218;3.452;2022-10-15T16:35:22;9.10;;;1.53;;
20870;SDS011;10595;51.218;3.452;2022-10-15T16:37:48;6.07;;;1.60;;
20870;SDS011;10595;51.218;3.452;2022-10-15T16:40:17;3.83;;;1.20;;